Time;durP1;ratioP1;P1;durP2;ratioP2;P2;SDS_P1;SDS_P2;PMS_P1;PMS_P2;Temp;Humidity;BMP_temperature;BMP_pressure;BME280_temperature;BME280_humidity;BME280_pressure;Samples;Min_cycle;Max_cycle;Signal;HPM_P1;HPM_P2
2022/05/13 00:01:13;;;;;;;10.35;2.30;;;;;;;11.94;100.00;101826.87;1874652;75;21025;-74
2022/05/13 00:03:43;;;;;;;6.85;2.02;;;;;;;11.84;100.00;101831.42;1848800;76;21200;-74
2022/05/13 00:06:10;;;;;;;5.35;1.75;;;;;;;11.70;100.00;101831.20;1840522;77;21483;-74
2022/05/13 00:08:37;;;;;;;7.60;2.25;;;;;;;11.75;100.00;101830.84;1847379;78;21125;-74
2022/05/13 00:11:07;;;;;;;4.40;1.85;;;;;;;11.78;100.00;101827.04;1858688;75;21119;-74
2022/05/13 00:13:34;;;;;;;7.87;1.67;;;;;;;11.72;100.00;101832.10;1887181;76;21525;-74
2022/05/13 00:16:04;;;;;;;7.83;2.05;;;;;;;11.58;100.00;101831.43;1887389;75;21172;-74
2022/05/13 00:18:31;;;;;;;3.50;2.20;;;;;;;11.64;100.00;101827.25;1848301;76;21052;-74
2022/05/13 00:20:59;;;;;;;10.85;2.52;;;;;;;11.58;100.00;101828.86;1848877;76;21118;-74
2022/05/13 00:23:26;;;;;;;13.32;2.95;;;;;;;11.71;100.00;101831.63;1848724;76;21485;-74
2022/05/13 00:25:54;;;;;;;8.20;2.17;;;;;;;11.60;100.00;101828.48;1848783;76;21103;-74
2022/05/13 00:28:21;;;;;;;9.25;1.77;;;;;;;11.68;100.00;101836.31;1848641;76;21049;-74
2022/05/13 00:30:49;;;;;;;5.78;1.60;;;;;;;11.63;100.00;101830.64;1848723;78;21486;-74
2022/05/13 00:33:17;;;;;;;8.50;2.20;;;;;;;11.50;100.00;101833.00;1848753;76;21509;-74
2022/05/13 00:35:44;;;;;;;6.90;2.12;;;;;;;11.38;100.00;101836.66;1848885;76;21274;-74
2022/05/13 00:38:12;;;;;;;5.83;2.05;;;;;;;11.32;100.00;101830.56;1848285;76;21103;-74
2022/05/13 00:40:40;;;;;;;4.80;2.75;;;;;;;11.33;100.00;101828.44;1858325;76;21029;-74
2022/05/13 00:43:10;;;;;;;5.80;2.00;;;;;;;11.43;100.00;101828.18;1843747;76;21063;-74
2022/05/13 00:45:37;;;;;;;7.10;1.80;;;;;;;11.38;100.00;101825.08;1847345;78;21546;-74
2022/05/13 00:48:05;;;;;;;5.67;1.85;;;;;;;11.42;100.00;101825.17;1883936;75;21106;-74
2022/05/13 00:50:35;;;;;;;11.85;2.02;;;;;;;11.42;100.00;101825.58;1848605;76;21049;-74
2022/05/13 00:53:03;;;;;;;5.53;2.90;;;;;;;11.39;100.00;101826.39;1817425;77;21595;-74
2022/05/13 00:55:35;;;;;;;4.22;1.82;;;;;;;11.44;100.00;101820.05;1835899;76;21182;-74
2022/05/13 00:58:05;;;;;;;7.08;2.35;;;;;;;11.50;100.00;101822.71;1815565;77;21525;-74
2022/05/13 01:00:33;;;;;;;6.28;2.02;;;;;;;11.47;100.00;101818.38;1816741;77;21126;-74
2022/05/13 01:03:01;;;;;;;5.05;1.62;;;;;;;11.35;100.00;101816.48;1848543;76;21462;-74
2022/05/13 01:05:28;;;;;;;3.52;1.70;;;;;;;11.38;100.00;101816.06;1827713;77;21177;-74
2022/05/13 01:07:56;;;;;;;3.52;1.75;;;;;;;11.31;100.00;101817.23;1847330;78;21079;-74
2022/05/13 01:10:26;;;;;;;3.40;1.40;;;;;;;11.34;100.00;101817.29;1848259;76;21165;-74
2022/05/13 01:12:58;;;;;;;8.45;2.15;;;;;;;11.27;100.00;101809.01;1848686;76;21134;-74
2022/05/13 01:15:29;;;;;;;6.30;2.42;;;;;;;11.27;100.00;101816.73;1848790;76;21257;-74
2022/05/13 01:18:08;;;;;;;4.22;1.85;;;;;;;11.26;100.00;101815.00;1848092;77;21124;-74
2022/05/13 01:20:38;;;;;;;5.97;1.87;;;;;;;11.23;100.00;101816.23;1848239;76;21533;-74
2022/05/13 01:23:09;;;;;;;5.20;1.98;;;;;;;11.09;100.00;101821.98;1848975;77;21052;-74
2022/05/13 01:25:40;;;;;;;6.72;1.75;;;;;;;11.03;100.00;101818.44;1839755;77;21160;-74
2022/05/13 01:28:10;;;;;;;11.00;2.00;;;;;;;11.13;100.00;101820.77;1846057;76;21062;-74
2022/05/13 01:30:41;;;;;;;6.20;1.98;;;;;;;11.15;100.00;101825.09;1857773;75;21087;-74
2022/05/13 01:33:09;;;;;;;3.77;1.98;;;;;;;11.18;100.00;101832.00;1883314;75;21056;-74
2022/05/13 01:35:41;;;;;;;7.28;2.15;;;;;;;11.05;100.00;101832.17;1848796;76;21081;-74
2022/05/13 01:38:10;;;;;;;5.10;2.67;;;;;;;10.97;100.00;101834.61;1849443;76;21033;-74
2022/05/13 01:40:37;;;;;;;5.10;1.75;;;;;;;10.94;100.00;101830.69;1823511;77;21466;-74
2022/05/13 01:43:05;;;;;;;5.60;1.98;;;;;;;11.09;100.00;101828.42;1849410;76;21104;-74
2022/05/13 01:45:33;;;;;;;6.08;2.35;;;;;;;10.94;100.00;101830.69;1856606;77;21081;-74
2022/05/13 01:48:00;;;;;;;10.18;2.37;;;;;;;10.99;100.00;101818.78;1822727;78;21074;-75
2022/05/13 01:50:28;;;;;;;13.68;2.20;;;;;;;10.91;100.00;101821.62;1848001;78;21014;-75
2022/05/13 01:52:55;;;;;;;6.83;2.02;;;;;;;11.02;100.00;101822.70;1822688;77;21102;-75
2022/05/13 01:55:24;;;;;;;4.78;1.60;;;;;;;10.97;100.00;101829.47;1853863;74;21139;-74
2022/05/13 01:57:52;;;;;;;5.50;2.35;;;;;;;10.95;100.00;101835.87;1880706;74;21045;-75
2022/05/13 02:00:21;;;;;;;3.65;1.75;;;;;;;10.96;100.00;101831.16;1880781;75;21483;-75
2022/05/13 02:05:35;;;;;;;5.75;1.70;;;;;;;11.14;100.00;101832.78;1849032;76;21206;-75
2022/05/13 02:08:03;;;;;;;7.53;1.92;;;;;;;11.19;100.00;101829.87;1849256;76;21037;-74
2022/05/13 02:10:31;;;;;;;4.60;1.87;;;;;;;11.18;100.00;101832.88;1848998;76;21064;-75
2022/05/13 02:12:59;;;;;;;7.12;2.02;;;;;;;11.23;100.00;101825.23;1881799;76;21050;-75
2022/05/13 02:15:26;;;;;;;4.37;1.75;;;;;;;11.20;100.00;101827.33;1881280;76;21211;-75
2022/05/13 02:17:54;;;;;;;6.70;2.15;;;;;;;11.17;100.00;101828.55;1823018;76;21035;-75
2022/05/13 02:20:21;;;;;;;6.10;1.85;;;;;;;11.20;100.00;101835.05;1881030;74;21068;-75
2022/05/13 02:22:48;;;;;;;5.37;1.52;;;;;;;11.10;100.00;101829.30;1881242;75;21116;-75
2022/05/13 02:25:16;;;;;;;10.63;1.90;;;;;;;11.03;100.00;101832.59;1848473;76;21096;-74
2022/05/13 02:27:43;;;;;;;6.53;1.50;;;;;;;10.94;100.00;101837.12;1848451;76;21061;-74
2022/05/13 02:30:12;;;;;;;4.53;1.80;;;;;;;10.99;100.00;101827.78;1849460;76;21010;-74
2022/05/13 02:32:39;;;;;;;5.15;1.67;;;;;;;11.05;100.00;101830.89;1849484;76;21141;-75
2022/05/13 02:35:07;;;;;;;5.62;1.52;;;;;;;11.00;100.00;101830.83;1849411;76;21150;-75
2022/05/13 02:37:35;;;;;;;7.58;1.50;;;;;;;11.02;100.00;101828.28;1819309;77;21628;-74
2022/05/13 02:40:04;;;;;;;7.03;2.00;;;;;;;10.92;100.00;101826.80;1863399;76;21182;-75
2022/05/13 02:42:33;;;;;;;5.12;1.80;;;;;;;10.95;100.00;101827.27;1865348;75;21420;-74
2022/05/13 02:45:00;;;;;;;4.58;1.62;;;;;;;11.02;100.00;101837.29;1864872;77;21089;-74
2022/05/13 02:47:28;;;;;;;4.40;1.47;;;;;;;11.12;100.00;101830.62;1865278;76;21039;-75
2022/05/13 02:52:41;;;;;;;4.10;1.62;;;;;;;11.08;100.00;101827.98;1848738;76;21151;-75
2022/05/13 02:55:09;;;;;;;6.80;1.65;;;;;;;10.95;100.00;101829.84;1846685;76;21070;-75
2022/05/13 02:57:37;;;;;;;6.25;1.80;;;;;;;10.91;100.00;101828.93;1814122;78;21119;-75
2022/05/13 03:00:06;;;;;;;5.00;1.27;;;;;;;10.76;100.00;101831.19;1865335;76;21096;-74
2022/05/13 03:02:34;;;;;;;6.15;1.60;;;;;;;10.74;100.00;101829.02;1865186;77;21490;-74
2022/05/13 03:05:01;;;;;;;5.53;1.75;;;;;;;10.71;100.00;101832.37;1865118;76;21144;-74
2022/05/13 03:07:29;;;;;;;8.35;1.55;;;;;;;10.68;100.00;101825.91;1865010;76;21045;-74
2022/05/13 03:09:56;;;;;;;7.12;1.90;;;;;;;10.68;100.00;101825.46;1865065;76;21530;-75
2022/05/13 03:12:23;;;;;;;7.37;1.80;;;;;;;10.71;100.00;101825.53;1869215;77;21034;-74
2022/05/13 03:14:51;;;;;;;4.85;2.40;;;;;;;10.60;100.00;101819.73;1848667;76;21084;-74
2022/05/13 03:17:18;;;;;;;5.17;1.90;;;;;;;10.36;100.00;101815.77;1884365;74;21699;-74
2022/05/13 03:19:46;;;;;;;12.30;2.22;;;;;;;10.45;100.00;101816.87;1848730;76;21115;-74
2022/05/13 03:22:13;;;;;;;5.90;1.80;;;;;;;10.42;100.00;101813.31;1848290;76;21040;-74
2022/05/13 03:24:41;;;;;;;5.90;2.10;;;;;;;10.48;100.00;101813.90;1848510;76;21581;-74
2022/05/13 03:27:08;;;;;;;6.40;2.80;;;;;;;10.51;100.00;101808.39;1885340;76;21132;-74
2022/05/13 03:29:36;;;;;;;7.62;1.98;;;;;;;10.54;100.00;101808.47;1849099;76;21595;-74
2022/05/13 03:32:05;;;;;;;4.08;1.77;;;;;;;10.50;100.00;101807.95;1846811;76;21047;-74
2022/05/13 03:34:33;;;;;;;6.37;1.50;;;;;;;10.50;100.00;101806.67;1814129;77;21077;-75
2022/05/13 03:37:00;;;;;;;6.47;1.85;;;;;;;10.45;100.00;101810.45;1844841;77;21485;-74
2022/05/13 03:39:28;;;;;;;7.92;2.00;;;;;;;10.39;100.00;101819.27;1844673;78;21082;-75
2022/05/13 03:41:56;;;;;;;5.05;2.20;;;;;;;10.50;100.00;101821.23;1845176;78;21095;-74
2022/05/13 03:44:23;;;;;;;9.08;2.72;;;;;;;10.54;100.00;101814.89;1845008;78;21133;-75
2022/05/13 03:46:50;;;;;;;6.00;2.25;;;;;;;10.66;100.00;101818.56;1844947;78;21031;-74
2022/05/13 03:49:18;;;;;;;4.40;2.33;;;;;;;10.67;100.00;101820.29;1844983;78;21011;-75
2022/05/13 03:51:45;;;;;;;6.45;2.10;;;;;;;10.67;100.00;101824.14;1845007;78;21055;-75
2022/05/13 03:54:13;;;;;;;2.72;1.70;;;;;;;10.61;100.00;101821.02;1844833;78;21075;-75
2022/05/13 03:56:40;;;;;;;5.87;1.80;;;;;;;10.63;100.00;101828.36;1844710;78;21008;-75
2022/05/13 03:59:08;;;;;;;4.28;2.15;;;;;;;10.62;100.00;101830.49;1844947;78;21110;-75
2022/05/13 04:01:35;;;;;;;7.12;2.12;;;;;;;10.62;100.00;101830.90;1846385;78;21110;-74
2022/05/13 04:04:02;;;;;;;3.87;2.20;;;;;;;10.75;100.00;101833.31;1844711;78;21196;-75
2022/05/13 04:09:15;;;;;;;6.65;2.10;;;;;;;10.69;100.00;101839.19;1844913;78;21090;-75
2022/05/13 04:16:04;;;;;;;8.65;2.17;;;;;;;10.65;100.00;101835.70;1847337;77;21022;-75
2022/05/13 04:16:57;;;;;;;4.05;1.70;;;;;;;10.79;100.00;101847.97;1849487;77;21084;-75
2022/05/13 04:19:26;;;;;;;2.75;1.55;;;;;;;10.82;100.00;101848.88;1848840;78;21036;-75
2022/05/13 04:21:54;;;;;;;3.72;1.82;;;;;;;10.73;100.00;101851.27;1848724;78;21158;-75
2022/05/13 04:24:22;;;;;;;5.12;2.08;;;;;;;10.53;100.00;101853.00;1823024;78;21126;-75
2022/05/13 04:26:50;;;;;;;3.45;1.70;;;;;;;10.52;100.00;101853.84;1844924;77;21040;-75
2022/05/13 04:29:17;;;;;;;9.58;2.30;;;;;;;10.45;100.00;101859.27;1844806;78;21540;-75
2022/05/13 04:31:45;;;;;;;7.03;1.90;;;;;;;10.47;100.00;101858.42;1845017;78;21073;-74
2022/05/13 04:34:12;;;;;;;5.78;2.15;;;;;;;10.57;100.00;101861.63;1844905;78;21579;-74
2022/05/13 04:36:40;;;;;;;3.77;2.08;;;;;;;10.64;100.00;101869.08;1845017;77;21031;-74
2022/05/13 04:39:08;;;;;;;3.90;1.67;;;;;;;10.58;100.00;101871.95;1844825;77;21095;-75
2022/05/13 04:44:21;;;;;;;4.37;2.58;;;;;;;10.35;100.00;101866.67;1844942;78;21162;-75
2022/05/13 04:46:48;;;;;;;5.10;2.22;;;;;;;10.38;100.00;101870.61;1844760;78;21022;-75
2022/05/13 04:49:16;;;;;;;5.97;2.72;;;;;;;10.30;100.00;101876.42;1844805;77;21304;-75
2022/05/13 04:51:43;;;;;;;4.05;2.08;;;;;;;10.30;100.00;101881.56;1844813;78;21007;-75
2022/05/13 04:54:11;;;;;;;5.33;2.15;;;;;;;10.30;100.00;101882.84;1846535;78;21103;-74
2022/05/13 04:56:39;;;;;;;4.95;2.00;;;;;;;10.47;100.00;101883.68;1845043;78;21091;-75
2022/05/13 04:59:07;;;;;;;4.05;2.27;;;;;;;10.63;100.00;101890.05;1846433;78;21181;-75
2022/05/13 05:01:34;;;;;;;3.92;1.72;;;;;;;10.71;100.00;101894.06;1844968;78;21516;-75
2022/05/13 05:04:02;;;;;;;4.78;1.67;;;;;;;10.77;100.00;101901.03;1844526;77;21009;-75
2022/05/13 05:06:29;;;;;;;4.20;2.10;;;;;;;10.93;100.00;101897.98;1844864;78;21087;-75
2022/05/13 05:08:57;;;;;;;3.98;2.05;;;;;;;11.17;100.00;101904.44;1844373;78;21091;-75
2022/05/13 05:11:24;;;;;;;3.12;1.35;;;;;;;11.33;100.00;101892.75;1844721;77;21081;-74
2022/05/13 05:13:52;;;;;;;3.20;1.25;;;;;;;11.50;100.00;101887.49;1848290;78;21100;-74
2022/05/13 05:16:22;;;;;;;2.92;1.12;;;;;;;11.52;100.00;101885.80;1848702;78;21635;-75
2022/05/13 05:18:49;;;;;;;2.67;1.40;;;;;;;11.60;100.00;101882.94;1848801;78;21072;-75
2022/05/13 05:21:17;;;;;;;5.35;1.20;;;;;;;11.70;100.00;101891.70;1848223;78;21209;-75
2022/05/13 05:23:45;;;;;;;3.27;1.20;;;;;;;11.76;100.00;101890.53;1846060;76;21011;-74
2022/05/13 05:26:13;;;;;;;3.90;1.40;;;;;;;11.81;100.00;101885.03;1844991;78;21507;-75
2022/05/13 05:28:41;;;;;;;3.75;1.20;;;;;;;11.87;100.00;101881.28;1845814;78;21556;-75
2022/05/13 05:31:11;;;;;;;5.30;1.50;;;;;;;11.80;100.00;101878.56;1848610;78;21118;-75
2022/05/13 05:33:39;;;;;;;3.50;1.25;;;;;;;11.79;100.00;101883.27;1822716;77;21141;-74
2022/05/13 05:36:06;;;;;;;5.65;1.12;;;;;;;11.80;100.00;101882.42;1848533;77;21142;-74
2022/05/13 05:38:34;;;;;;;1.60;1.02;;;;;;;11.72;100.00;101887.45;1848066;77;21094;-74
2022/05/13 05:41:02;;;;;;;5.87;1.42;;;;;;;11.77;100.00;101888.80;1836843;76;21126;-74
2022/05/13 05:43:29;;;;;;;4.78;1.45;;;;;;;11.57;100.00;101886.73;1787758;80;21501;-75
2022/05/13 05:45:59;;;;;;;5.10;1.50;;;;;;;11.64;100.00;101892.89;1845984;76;21076;-76
2022/05/13 05:48:26;;;;;;;5.42;1.40;;;;;;;11.64;100.00;101901.46;1857627;76;21577;-76
2022/05/13 05:50:56;;;;;;;4.78;1.82;;;;;;;11.64;100.00;101904.47;1849892;76;21137;-76
2022/05/13 05:59:00;;;;;;;7.40;1.90;;;;;;;11.95;100.00;101916.16;1867333;76;21062;-75
2022/05/13 06:01:28;;;;;;;4.50;1.45;;;;;;;12.02;100.00;101928.72;1841726;76;21092;-75
2022/05/13 06:03:56;;;;;;;4.30;1.67;;;;;;;12.18;100.00;101934.16;1850510;77;21113;-76
2022/05/13 06:06:23;;;;;;;5.97;1.77;;;;;;;12.37;100.00;101935.31;1820301;77;21123;-77
2022/05/13 06:08:54;;;;;;;2.37;1.32;;;;;;;12.47;100.00;101935.91;1850956;77;22077;-77
2022/05/13 06:11:20;;;;;;;4.53;1.60;;;;;;;12.58;100.00;101932.64;1844060;76;21167;-76
2022/05/13 06:13:47;;;;;;;2.70;1.60;;;;;;;12.73;100.00;101942.30;1843563;76;21072;-77
2022/05/13 06:16:15;;;;;;;4.62;1.45;;;;;;;12.88;100.00;101946.38;1850374;76;21045;-77
2022/05/13 06:18:42;;;;;;;5.80;1.47;;;;;;;12.87;100.00;101945.07;1851084;77;21597;-77
2022/05/13 06:21:10;;;;;;;3.10;1.40;;;;;;;13.11;100.00;101952.24;1844079;77;21088;-77
2022/05/13 06:23:37;;;;;;;2.50;1.17;;;;;;;13.15;100.00;101948.01;1850417;76;21154;-77
2022/05/13 06:26:05;;;;;;;4.40;1.20;;;;;;;13.31;100.00;101944.33;1849322;77;21072;-77
2022/05/13 06:28:32;;;;;;;3.80;1.30;;;;;;;13.39;100.00;101947.41;1849299;76;21136;-76
2022/05/13 06:31:00;;;;;;;5.75;2.05;;;;;;;13.39;100.00;101946.13;1849921;77;21021;-76
2022/05/13 06:33:27;;;;;;;12.53;1.62;;;;;;;13.43;100.00;101941.88;1851296;76;21097;-77
2022/05/13 06:35:55;;;;;;;6.30;1.82;;;;;;;13.49;100.00;101950.16;1875130;76;21073;-77
2022/05/13 06:38:25;;;;;;;4.28;1.40;;;;;;;13.74;100.00;101955.57;1851248;74;21197;-77
2022/05/13 06:40:54;;;;;;;4.75;1.77;;;;;;;13.88;100.00;101946.66;1838800;78;21073;-77
2022/05/13 06:43:22;;;;;;;2.92;1.02;;;;;;;14.16;100.00;101941.32;1839069;77;21119;-77
2022/05/13 06:45:50;;;;;;;4.10;2.02;;;;;;;14.50;100.00;101938.13;1887654;75;21078;-75
2022/05/13 06:48:17;;;;;;;4.58;1.22;;;;;;;14.64;100.00;101923.98;1849779;76;21129;-74
2022/05/13 06:50:46;;;;;;;2.87;1.30;;;;;;;14.73;100.00;101923.59;1885761;76;21038;-73
2022/05/13 06:53:15;;;;;;;3.77;1.62;;;;;;;15.20;100.00;101924.27;1851389;76;21041;-78
2022/05/13 06:55:44;;;;;;;5.22;2.00;;;;;;;15.59;100.00;101917.87;1850746;76;22588;-77
2022/05/13 06:58:13;;;;;;;1.77;1.30;;;;;;;15.84;100.00;101923.08;1851543;76;21053;-77
2022/05/13 07:00:40;;;;;;;2.98;1.35;;;;;;;16.38;100.00;101911.86;1851226;76;21021;-74
2022/05/13 07:03:13;;;;;;;5.47;1.85;;;;;;;16.69;100.00;101913.52;1851451;76;21147;-74
2022/05/13 07:05:40;;;;;;;5.87;1.92;;;;;;;16.54;100.00;101912.25;1851351;76;21249;-73
2022/05/13 07:08:08;;;;;;;11.78;2.08;;;;;;;16.41;100.00;101914.00;1851428;76;21151;-74
2022/05/13 07:10:37;;;;;;;6.65;2.10;;;;;;;16.36;100.00;101914.87;1822126;77;21227;-73
2022/05/13 07:13:04;;;;;;;6.80;1.98;;;;;;;16.24;100.00;101913.19;1850279;77;21111;-72
2022/05/13 07:15:32;;;;;;;5.87;2.72;;;;;;;16.20;100.00;101911.87;1831234;76;21155;-72
2022/05/13 07:18:00;;;;;;;12.30;2.70;;;;;;;16.12;100.00;101915.34;1826340;76;21098;-73
2022/05/13 07:20:28;;;;;;;8.33;3.22;;;;;;;16.25;100.00;101917.91;1886977;75;21085;-72
2022/05/13 07:22:56;;;;;;;7.28;2.10;;;;;;;16.47;100.00;101914.01;1851661;76;21122;-72
2022/05/13 07:25:24;;;;;;;6.75;2.98;;;;;;;16.43;100.00;101919.62;1851478;76;21087;-72
2022/05/13 07:27:53;;;;;;;4.75;2.42;;;;;;;16.51;100.00;101921.76;1851609;76;21044;-72
2022/05/13 07:30:20;;;;;;;7.28;2.62;;;;;;;16.64;100.00;101921.72;1851415;76;21084;-74
2022/05/13 07:32:48;;;;;;;9.45;2.87;;;;;;;16.93;100.00;101923.38;1822589;77;21032;-74
2022/05/13 07:35:15;;;;;;;5.80;2.65;;;;;;;16.78;100.00;101923.44;1850179;76;21080;-74
2022/05/13 07:37:43;;;;;;;8.43;2.22;;;;;;;16.55;100.00;101923.93;1819322;78;21048;-74
2022/05/13 07:42:57;;;;;;;9.30;2.70;;;;;;;16.27;100.00;101929.59;1816862;77;21241;-74
2022/05/13 07:45:24;;;;;;;5.35;2.42;;;;;;;16.20;100.00;101934.80;1815769;77;21100;-74
2022/05/13 07:47:52;;;;;;;6.20;2.70;;;;;;;15.97;100.00;101942.13;1847355;76;21188;-74
2022/05/13 07:50:20;;;;;;;11.43;2.80;;;;;;;16.07;100.00;101939.11;1847612;76;21035;-74
2022/05/13 07:52:49;;;;;;;9.08;2.25;;;;;;;16.21;100.00;101936.52;1847328;76;21106;-73
2022/05/13 07:55:16;;;;;;;4.28;2.75;;;;;;;16.33;100.00;101936.92;1847486;76;21106;-73
2022/05/13 07:57:45;;;;;;;8.05;2.58;;;;;;;16.37;100.00;101943.83;1847333;76;21461;-73
2022/05/13 08:00:27;;;;;;;10.08;2.60;;;;;;;16.37;100.00;101937.34;1847770;76;21573;-73
2022/05/13 08:02:58;;;;;;;5.83;2.20;;;;;;;16.72;100.00;101939.46;1848523;76;21190;-75
2022/05/13 08:05:28;;;;;;;6.62;1.82;;;;;;;17.00;100.00;101946.28;1813966;77;21203;-75
2022/05/13 08:08:04;;;;;;;12.07;2.22;;;;;;;17.22;100.00;101947.08;1815800;77;21137;-75
2022/05/13 08:10:32;;;;;;;7.45;1.60;;;;;;;17.90;100.00;101946.23;1839848;76;21052;-75
2022/05/13 08:12:59;;;;;;;14.23;2.70;;;;;;;18.64;100.00;101929.52;1848517;76;21037;-76
2022/05/13 08:15:27;;;;;;;8.43;2.50;;;;;;;18.57;100.00;101933.94;1850139;76;21672;-75
2022/05/13 08:17:54;;;;;;;7.55;2.12;;;;;;;18.10;100.00;101936.14;1811319;77;21044;-75
2022/05/13 08:20:23;;;;;;;5.45;1.60;;;;;;;18.17;100.00;101933.92;1825006;77;21115;-76
2022/05/13 08:22:50;;;;;;;6.15;1.70;;;;;;;19.12;100.00;101934.63;1812081;77;21527;-76
2022/05/13 08:25:18;;;;;;;6.17;1.82;;;;;;;19.62;100.00;101928.27;1882242;75;21142;-75
2022/05/13 08:27:47;;;;;;;5.05;1.52;;;;;;;19.31;100.00;101930.05;1880276;74;21489;-75
2022/05/13 08:30:15;;;;;;;8.03;1.85;;;;;;;19.58;100.00;101933.11;1881187;76;21054;-75
2022/05/13 08:32:43;;;;;;;8.63;1.80;;;;;;;19.05;100.00;101932.52;1850309;75;21181;-76
2022/05/13 08:35:12;;;;;;;4.55;2.00;;;;;;;19.77;100.00;101932.84;1849971;76;21709;-76
2022/05/13 08:37:44;;;;;;;2.85;1.92;;;;;;;20.14;100.00;101928.80;1847525;76;21044;-76
2022/05/13 08:40:34;;;;;;;6.25;2.00;;;;;;;19.89;100.00;101931.80;1822727;77;21182;-76
2022/05/13 08:43:10;;;;;;;2.67;1.20;;;;;;;20.12;100.00;101936.64;1848303;78;21174;-76
2022/05/13 08:45:40;;;;;;;4.65;1.77;;;;;;;20.51;100.00;101926.80;1847324;76;21591;-76
2022/05/13 08:48:10;;;;;;;4.85;1.82;;;;;;;20.04;100.00;101935.45;1846614;77;21192;-76
2022/05/13 08:50:40;;;;;;;3.75;1.60;;;;;;;19.68;100.00;101940.36;1847397;76;21056;-76
2022/05/13 08:53:16;;;;;;;6.15;1.62;;;;;;;18.65;100.00;101932.11;1846662;76;21070;-76
2022/05/13 08:55:47;;;;;;;5.95;1.40;;;;;;;18.62;100.00;101924.80;1846736;76;21153;-76
2022/05/13 08:58:24;;;;;;;6.20;2.77;;;;;;;18.41;100.00;101931.95;1848249;76;21032;-76
2022/05/13 09:00:54;;;;;;;6.80;2.02;;;;;;;19.10;100.00;101922.92;1846711;76;21556;-77
2022/05/13 09:03:34;;;;;;;5.70;1.67;;;;;;;20.21;100.00;101930.41;1834921;76;21115;-76
2022/05/13 09:06:13;;;;;;;7.22;2.50;;;;;;;19.59;100.00;101930.95;1847133;77;21750;-76
2022/05/13 09:08:42;;;;;;;7.67;1.77;;;;;;;19.13;100.00;101929.86;1838924;76;21144;-76
2022/05/13 09:11:18;;;;;;;5.58;1.47;;;;;;;18.62;100.00;101927.39;1815515;77;21134;-77
2022/05/13 09:13:52;;;;;;;8.93;1.87;;;;;;;18.41;100.00;101920.25;1825633;77;21107;-77
2022/05/13 09:16:22;;;;;;;7.62;1.37;;;;;;;18.31;100.00;101938.53;1801303;77;21044;-76
2022/05/13 09:18:53;;;;;;;5.17;2.42;;;;;;;18.26;100.00;101936.84;1842967;76;21571;-77
2022/05/13 09:21:21;;;;;;;7.15;1.77;;;;;;;17.84;100.00;101941.06;1851343;76;21119;-77
2022/05/13 09:23:49;;;;;;;5.53;1.30;;;;;;;17.57;100.00;101941.71;1833890;78;21054;-77
2022/05/13 09:26:22;;;;;;;5.20;1.47;;;;;;;17.59;100.00;101939.95;1880553;74;21183;-77
2022/05/13 09:29:05;;;;;;;6.37;1.65;;;;;;;17.58;100.00;101951.22;1880922;74;21015;-77
2022/05/13 09:31:36;;;;;;;6.03;1.23;;;;;;;17.30;100.00;101944.89;1847248;76;21123;-77
2022/05/13 09:34:03;;;;;;;7.20;1.92;;;;;;;17.24;100.00;101945.36;1844342;76;21195;-77
2022/05/13 09:36:32;;;;;;;6.58;1.87;;;;;;;17.22;100.00;101946.20;1864842;75;21111;-77
2022/05/13 09:39:03;;;;;;;3.77;1.55;;;;;;;17.37;100.00;101939.63;1846436;76;21060;-77
2022/05/13 09:41:37;;;;;;;5.75;1.35;;;;;;;17.55;100.00;101937.82;1847502;76;21159;-77
2022/05/13 09:44:13;;;;;;;6.78;1.52;;;;;;;18.92;100.00;101929.20;1820638;76;21134;-77
2022/05/13 09:46:47;;;;;;;5.25;1.32;;;;;;;19.82;100.00;101933.62;1847891;76;21041;-77
2022/05/13 09:49:36;;;;;;;4.20;1.62;;;;;;;20.05;100.00;101937.63;1850553;76;21115;-78
2022/05/13 09:52:27;;;;;;;4.60;1.47;;;;;;;20.50;100.00;101937.67;1850202;77;21132;-77
2022/05/13 09:54:56;;;;;;;3.22;1.02;;;;;;;20.92;100.00;101939.09;1844819;77;21256;-78
2022/05/13 09:57:33;;;;;;;7.37;2.25;;;;;;;20.04;100.00;101945.89;1842232;76;21088;-78
2022/05/13 10:00:06;;;;;;;2.25;1.47;;;;;;;20.01;100.00;101942.48;1881424;75;21576;-78
2022/05/13 10:02:37;;;;;;;7.87;1.70;;;;;;;19.67;100.00;101939.52;1887004;74;21088;-78
2022/05/13 10:05:22;;;;;;;11.50;1.75;;;;;;;19.19;100.00;101938.45;1880265;74;21097;-78
2022/05/13 10:07:56;;;;;;;7.75;1.70;;;;;;;19.21;100.00;101934.53;1848245;76;21023;-78
2022/05/13 10:16:03;;;;;;;6.22;2.02;;;;;;;18.30;100.00;101938.11;1860831;75;21676;-78
2022/05/13 10:18:33;;;;;;;5.40;1.32;;;;;;;18.16;100.00;101942.56;1859237;76;21101;-78
2022/05/13 10:21:03;;;;;;;9.28;1.50;;;;;;;17.85;100.00;101937.62;1836777;77;21543;-77
2022/05/13 10:23:37;;;;;;;5.72;1.50;;;;;;;17.71;100.00;101933.82;1822784;77;21033;-77
2022/05/13 10:26:07;;;;;;;9.35;1.77;;;;;;;17.60;100.00;101938.64;1862333;76;21512;-77
2022/05/13 10:28:43;;;;;;;5.72;1.40;;;;;;;17.59;100.00;101938.64;1903288;74;21045;-78
2022/05/13 10:31:14;;;;;;;6.53;1.72;;;;;;;17.60;100.00;101933.87;1901357;74;21603;-77
2022/05/13 10:33:57;;;;;;;5.22;1.57;;;;;;;17.68;100.00;101929.94;1903110;73;21041;-78
2022/05/13 10:36:37;;;;;;;4.37;1.32;;;;;;;18.00;100.00;101922.32;1899418;74;21153;-78
2022/05/13 10:39:33;;;;;;;5.17;1.45;;;;;;;19.50;100.00;101928.03;1911532;74;21024;-78
2022/05/13 10:42:04;;;;;;;4.28;1.80;;;;;;;20.63;100.00;101922.64;1904534;74;21080;-78
2022/05/13 10:44:34;;;;;;;5.87;1.22;;;;;;;20.86;100.00;101925.67;1902055;74;21195;-78
2022/05/13 10:47:05;;;;;;;6.60;1.82;;;;;;;20.55;100.00;101925.84;1900974;74;21088;-78
2022/05/13 10:49:35;;;;;;;7.37;1.82;;;;;;;21.28;100.00;101933.12;1869007;74;21199;-79
2022/05/13 10:52:23;;;;;;;8.23;1.35;;;;;;;20.85;100.00;101923.96;1900376;74;21699;-78
2022/05/13 10:54:57;;;;;;;4.70;1.52;;;;;;;20.81;100.00;101923.18;1899414;74;21082;-78
2022/05/13 10:57:44;;;;;;;4.60;1.67;;;;;;;20.38;100.00;101926.16;1898047;74;21120;-78
2022/05/13 11:00:23;;;;;;;5.33;1.65;;;;;;;20.05;100.00;101918.07;1892402;74;21195;-78
2022/05/13 11:03:14;;;;;;;5.47;2.30;;;;;;;19.99;100.00;101915.13;1845141;76;21126;-78
2022/05/13 11:05:56;;;;;;;3.40;1.32;;;;;;;20.12;100.00;101913.17;1879020;74;21163;-77
2022/05/13 11:08:27;;;;;;;3.02;1.00;;;;;;;19.62;100.00;101912.63;1815877;77;21105;-78
2022/05/13 11:11:22;;;;;;;4.15;1.50;;;;;;;19.61;100.00;101908.78;1852639;76;21025;-77
2022/05/13 11:14:26;;;;;;;4.47;1.05;;;;;;;19.74;100.00;101905.08;1889439;73;21137;-78
2022/05/13 11:16:56;;;;;;;4.22;1.77;;;;;;;20.57;100.00;101901.89;1881300;76;21082;-78
2022/05/13 11:19:38;;;;;;;23.00;1.75;;;;;;;20.36;100.00;101907.92;1848616;76;21514;-79
2022/05/13 11:22:21;;;;;;;3.98;1.10;;;;;;;20.08;100.00;101907.59;1848552;76;21128;-77
2022/05/13 11:28:03;;;;;;;4.87;1.20;;;;;;;19.58;100.00;101900.10;1848725;77;21497;-78
2022/05/13 11:30:50;;;;;;;5.62;1.20;;;;;;;19.55;100.00;101894.09;1848780;76;21134;-76
2022/05/13 11:33:20;;;;;;;7.83;1.27;;;;;;;19.64;100.00;101895.66;1848196;76;21209;-78
2022/05/13 11:36:14;;;;;;;4.35;1.50;;;;;;;19.67;100.00;101895.63;1848206;76;21229;-78
2022/05/13 11:39:02;;;;;;;2.63;1.43;;;;;;;19.97;100.00;101892.10;1849200;76;21193;-78
2022/05/13 11:41:33;;;;;;;3.08;1.27;;;;;;;20.19;100.00;101890.43;1848159;75;21138;-78
2022/05/13 11:44:03;;;;;;;5.78;1.17;;;;;;;20.45;100.00;101889.09;1879503;74;21466;-78
2022/05/13 11:46:48;;;;;;;3.10;1.75;;;;;;;20.86;100.00;101889.98;1880108;75;21182;-78
2022/05/13 11:49:22;;;;;;;5.70;1.30;;;;;;;20.85;100.00;101894.80;1847950;76;21068;-77
2022/05/13 11:51:49;;;;;;;4.03;1.10;;;;;;;20.55;100.00;101890.61;1877315;74;21471;-77
2022/05/13 11:54:23;;;;;;;2.30;0.98;;;;;;;20.25;100.00;101894.24;1848041;76;21078;-77
2022/05/13 11:56:53;;;;;;;2.95;1.12;;;;;;;20.07;100.00;101892.37;1880599;75;21044;-77
2022/05/13 11:59:29;;;;;;;6.75;1.90;;;;;;;19.87;100.00;101889.22;1876591;74;21054;-78
2022/05/13 12:02:15;;;;;;;4.53;1.42;;;;;;;20.04;100.00;101891.11;1827097;76;21586;-78